HTDO

Dodoma Airport

Dodoma, Tanzania
HTDO 210500Z 2106/2206 09012KT 9999 NSC
Issued Valid From Valid To
Aug-21 @ 05:00 UTC
(13 hours ago)
Aug-21 @ 06:00 UTC
(12 hours ago)
Aug-22 @ 06:00 UTC
(in 12 hours)
Aug-21 @ 06:00 to Aug-22 @ 06:00
HTDO 210500Z 2106/2206 09012KT 9999 NSC
Wind Visibility Clouds
90° at 12 knots 10,000+ meters
  • No significant clouds
HTDO 210500Z 2106/2206 09012KT 9999 NSC
Issued Aug-21 @ 05:00 UTC
(13 hours ago)
Valid From Aug-21 @ 06:00 UTC
(12 hours ago)
Valid To Aug-22 @ 06:00 UTC
(in 12 hours)
Aug-21 @ 06:00 - Aug-22 @ 06:00
Wind Visibility
90° at 12 knots 10,000+ meters
Clouds
  • No significant clouds